createdAt,value
2019-02-06T00:01:47.391Z,-1.24
2019-02-06T00:03:51.833Z,-1.22
2019-02-06T00:05:59.342Z,-1.21
2019-02-06T00:08:03.296Z,-1.20
2019-02-06T00:10:07.303Z,-1.20
2019-02-06T00:12:11.900Z,-1.20
2019-02-06T00:14:16.221Z,-1.23
2019-02-06T00:16:20.694Z,-1.26
2019-02-06T00:18:24.773Z,-1.30
2019-02-06T00:20:32.683Z,-1.33
2019-02-06T00:22:37.488Z,-1.36
2019-02-06T00:24:41.701Z,-1.39
2019-02-06T00:26:47.378Z,-1.42
2019-02-06T00:28:51.272Z,-1.43
2019-02-06T00:30:55.320Z,-1.42
2019-02-06T00:33:00.255Z,-1.41
2019-02-06T00:35:04.555Z,-1.42
2019-02-06T00:37:08.777Z,-1.41
2019-02-06T00:39:12.476Z,-1.42
2019-02-06T00:41:17.310Z,-1.42
2019-02-06T00:43:21.655Z,-1.40
2019-02-06T00:45:27.764Z,-1.42
2019-02-06T00:47:31.628Z,-1.44
2019-02-06T00:49:35.495Z,-1.47
2019-02-06T00:51:39.963Z,-1.48
2019-02-06T00:53:43.793Z,-1.50
2019-02-06T00:55:48.599Z,-1.53
2019-02-06T00:57:52.614Z,-1.57
2019-02-06T00:59:58.595Z,-1.58
2019-02-06T01:02:02.939Z,-1.62
2019-02-06T01:04:08.911Z,-1.62
2019-02-06T01:06:13.574Z,-1.62
2019-02-06T01:08:17.686Z,-1.61
2019-02-06T01:10:22.670Z,-1.60
2019-02-06T01:12:27.207Z,-1.60
2019-02-06T01:14:31.659Z,-1.63
2019-02-06T01:16:36.723Z,-1.62
2019-02-06T01:18:41.773Z,-1.61
2019-02-06T01:20:46.715Z,-1.60
2019-02-06T01:22:54.534Z,-1.61
2019-02-06T01:24:58.396Z,-1.63
2019-02-06T01:27:03.315Z,-1.66
2019-02-06T01:29:07.473Z,-1.72
2019-02-06T01:31:16.471Z,-1.73
2019-02-06T01:33:20.455Z,-1.78
2019-02-06T01:35:25.117Z,-1.80
2019-02-06T01:37:29.231Z,-1.82
2019-02-06T01:39:34.025Z,-1.83
2019-02-06T01:41:38.189Z,-1.82
2019-02-06T01:43:42.175Z,-1.84
2019-02-06T01:45:46.323Z,-1.86
2019-02-06T01:47:50.289Z,-1.88
2019-02-06T01:49:54.764Z,-1.87
2019-02-06T01:51:59.058Z,-1.86
2019-02-06T01:54:02.956Z,-1.84
2019-02-06T01:56:07.448Z,-1.84
2019-02-06T01:58:11.332Z,-1.83
2019-02-06T02:00:20.030Z,-1.81
2019-02-06T02:02:26.428Z,-1.85
2019-02-06T02:04:30.399Z,-1.88
2019-02-06T02:06:34.948Z,-1.92
2019-02-06T02:08:42.129Z,-1.95
2019-02-06T02:10:45.865Z,-1.92
2019-02-06T02:12:50.534Z,-1.88
2019-02-06T02:14:54.592Z,-1.85
2019-02-06T02:16:59.775Z,-1.82
2019-02-06T02:19:03.861Z,-1.83
2019-02-06T02:21:08.900Z,-1.85
2019-02-06T02:23:13.239Z,-1.87
2019-02-06T02:25:18.362Z,-1.94
2019-02-06T02:27:23.000Z,-2.00
2019-02-06T02:29:27.040Z,-2.01
2019-02-06T02:31:31.993Z,-2.02
2019-02-06T02:33:36.113Z,-2.02
2019-02-06T02:35:41.648Z,-2.06
2019-02-06T02:37:46.515Z,-2.08
2019-02-06T02:39:51.349Z,-2.06
2019-02-06T02:41:56.055Z,-2.09
2019-02-06T02:44:00.028Z,-2.09
2019-02-06T02:46:04.065Z,-2.14
2019-02-06T02:48:08.263Z,-2.16
2019-02-06T02:50:12.262Z,-2.18
2019-02-06T02:52:18.249Z,-2.16
2019-02-06T02:54:22.123Z,-2.18
2019-02-06T02:56:27.477Z,-2.15
2019-02-06T02:58:31.425Z,-2.16
2019-02-06T03:00:58.275Z,-2.19
2019-02-06T03:03:06.581Z,-2.23
2019-02-06T03:05:14.970Z,-2.26
2019-02-06T03:07:18.965Z,-2.26
2019-02-06T03:09:24.862Z,-2.27
2019-02-06T03:11:29.077Z,-2.27
2019-02-06T03:13:33.339Z,-2.28
2019-02-06T03:15:37.736Z,-2.28
2019-02-06T03:17:41.867Z,-2.27
2019-02-06T03:19:46.619Z,-2.28
2019-02-06T03:21:51.213Z,-2.32
2019-02-06T03:23:55.086Z,-2.30
2019-02-06T03:25:59.402Z,-2.32
2019-02-06T03:28:03.430Z,-2.33
2019-02-06T03:30:09.493Z,-2.36
2019-02-06T03:32:13.709Z,-2.36
2019-02-06T03:34:18.914Z,-2.36
2019-02-06T03:36:23.982Z,-2.37
2019-02-06T03:38:27.969Z,-2.40
2019-02-06T03:40:34.077Z,-2.42
2019-02-06T03:42:37.914Z,-2.47
2019-02-06T03:44:42.765Z,-2.50
2019-02-06T03:46:46.625Z,-2.54
2019-02-06T03:48:50.551Z,-2.55
2019-02-06T03:50:56.631Z,-2.55
2019-02-06T03:53:00.672Z,-2.58
2019-02-06T03:55:07.056Z,-2.57
2019-02-06T03:57:10.899Z,-2.57
2019-02-06T03:59:14.793Z,-2.57
2019-02-06T04:01:19.760Z,-2.56
2019-02-06T04:03:26.754Z,-2.58
2019-02-06T04:05:30.912Z,-2.57
2019-02-06T04:07:34.759Z,-2.54
2019-02-06T04:09:38.571Z,-2.54
2019-02-06T04:11:43.303Z,-2.56
2019-02-06T04:13:47.312Z,-2.60
2019-02-06T04:15:52.162Z,-2.63
2019-02-06T04:17:57.016Z,-2.64
2019-02-06T04:20:01.543Z,-2.62
2019-02-06T04:22:05.402Z,-2.59
2019-02-06T04:24:09.300Z,-2.54
2019-02-06T04:26:13.385Z,-2.47
2019-02-06T04:28:17.318Z,-2.42
2019-02-06T04:30:21.812Z,-2.39
2019-02-06T04:32:25.583Z,-2.37
2019-02-06T04:34:29.556Z,-2.37
2019-02-06T04:36:33.837Z,-2.37
2019-02-06T04:38:37.891Z,-2.38
2019-02-06T04:40:46.404Z,-2.40
2019-02-06T04:42:50.294Z,-2.43
2019-02-06T04:44:54.069Z,-2.44
2019-02-06T04:46:59.218Z,-2.43
2019-02-06T04:49:03.191Z,-2.41
2019-02-06T04:51:08.817Z,-2.40
2019-02-06T04:53:12.739Z,-2.38
2019-02-06T04:55:16.846Z,-2.39
2019-02-06T04:57:21.534Z,-2.39
2019-02-06T04:59:25.640Z,-2.43
2019-02-06T05:01:29.759Z,-2.48
2019-02-06T05:03:35.697Z,-2.58
2019-02-06T05:05:40.318Z,-2.65
2019-02-06T05:07:44.480Z,-2.69
2019-02-06T05:09:48.422Z,-2.69
2019-02-06T05:11:52.983Z,-2.68
2019-02-06T05:13:56.982Z,-2.66
2019-02-06T05:16:01.562Z,-2.67
2019-02-06T05:18:08.069Z,-2.64
2019-02-06T05:20:28.881Z,-2.66
2019-02-06T05:22:33.846Z,-2.68
2019-02-06T05:24:37.844Z,-2.71
2019-02-06T05:26:42.570Z,-2.77
2019-02-06T05:28:47.703Z,-2.81
2019-02-06T05:30:52.021Z,-2.84
2019-02-06T05:32:56.074Z,-2.89
2019-02-06T05:35:02.945Z,-2.89
2019-02-06T05:37:09.931Z,-2.90
2019-02-06T05:39:13.828Z,-2.86
2019-02-06T05:41:22.314Z,-2.83
2019-02-06T05:43:26.651Z,-2.84
2019-02-06T05:45:30.864Z,-2.81
2019-02-06T05:47:35.402Z,-2.82
2019-02-06T05:49:39.414Z,-2.82
2019-02-06T05:51:46.157Z,-2.80
2019-02-06T05:53:50.275Z,-2.74
2019-02-06T05:55:54.439Z,-2.69
2019-02-06T05:57:58.941Z,-2.67
2019-02-06T06:00:03.932Z,-2.66
2019-02-06T06:02:08.460Z,-2.67
2019-02-06T06:04:12.675Z,-2.69
2019-02-06T06:06:17.250Z,-2.71
2019-02-06T06:08:21.118Z,-2.74
2019-02-06T06:10:24.985Z,-2.75
2019-02-06T06:12:29.661Z,-2.73
2019-02-06T06:14:33.565Z,-2.75
2019-02-06T06:16:38.493Z,-2.72
2019-02-06T06:18:42.815Z,-2.68
2019-02-06T06:20:46.543Z,-2.66
2019-02-06T06:22:51.139Z,-2.69
2019-02-06T06:24:55.097Z,-2.66
2019-02-06T06:27:00.165Z,-2.63
2019-02-06T06:29:04.058Z,-2.61
2019-02-06T06:31:10.572Z,-2.59
2019-02-06T06:33:15.692Z,-2.57
2019-02-06T06:35:19.636Z,-2.60
2019-02-06T06:37:23.700Z,-2.63
2019-02-06T06:39:27.706Z,-2.67
2019-02-06T06:41:31.603Z,-2.67
2019-02-06T06:43:36.146Z,-2.66
2019-02-06T06:45:40.225Z,-2.66
2019-02-06T06:47:45.076Z,-2.66
2019-02-06T06:49:48.933Z,-2.66
2019-02-06T06:51:55.953Z,-2.66
2019-02-06T06:53:59.922Z,-2.64
2019-02-06T06:56:03.941Z,-2.65
2019-02-06T06:58:08.943Z,-2.66
2019-02-06T07:00:22.038Z,-2.65
2019-02-06T07:02:26.633Z,-2.67
2019-02-06T07:04:30.496Z,-2.66
2019-02-06T07:06:36.705Z,-2.65
2019-02-06T07:08:40.692Z,-2.64
2019-02-06T07:10:44.747Z,-2.62
2019-02-06T07:12:48.857Z,-2.60
2019-02-06T07:14:52.959Z,-2.55
2019-02-06T07:16:59.667Z,-2.53
2019-02-06T07:19:03.591Z,-2.53
2019-02-06T07:21:07.476Z,-2.51
2019-02-06T07:23:12.265Z,-2.51
2019-02-06T07:25:17.240Z,-2.53
2019-02-06T07:27:21.498Z,-2.50
2019-02-06T07:29:25.495Z,-2.45
2019-02-06T07:31:29.379Z,-2.45
2019-02-06T07:33:34.253Z,-2.44
2019-02-06T07:35:38.284Z,-2.47
2019-02-06T07:37:43.030Z,-2.45
2019-02-06T07:39:46.955Z,-2.43
2019-02-06T07:41:50.787Z,-2.42
2019-02-06T07:43:55.322Z,-2.43
2019-02-06T07:45:59.310Z,-2.47
2019-02-06T07:48:06.735Z,-2.48
2019-02-06T07:50:16.298Z,-2.49
2019-02-06T07:52:20.914Z,-2.50
2019-02-06T07:54:25.981Z,-2.50
2019-02-06T07:56:29.927Z,-2.54
2019-02-06T07:58:34.489Z,-2.52
2019-02-06T08:00:38.578Z,-2.54
2019-02-06T08:02:44.407Z,-2.50
2019-02-06T08:04:48.175Z,-2.50
2019-02-06T08:06:52.114Z,-2.49
2019-02-06T08:08:56.996Z,-2.51
2019-02-06T08:11:03.101Z,-2.54
2019-02-06T08:13:08.686Z,-2.53
2019-02-06T08:15:13.830Z,-2.52
2019-02-06T08:17:17.721Z,-2.49
2019-02-06T08:19:22.473Z,-2.47
2019-02-06T08:21:26.466Z,-2.47
2019-02-06T08:23:31.342Z,-2.48
2019-02-06T08:25:35.222Z,-2.44
2019-02-06T08:27:41.231Z,-2.38
2019-02-06T08:29:45.899Z,-2.36
2019-02-06T08:31:49.613Z,-2.36
2019-02-06T08:33:54.581Z,-2.31
2019-02-06T08:35:58.523Z,-2.27
2019-02-06T08:38:02.868Z,-2.23
2019-02-06T08:40:07.489Z,-2.22
2019-02-06T08:42:11.440Z,-2.20
2019-02-06T08:44:16.643Z,-2.19
2019-02-06T08:46:20.592Z,-2.15
2019-02-06T08:48:25.494Z,-2.10
2019-02-06T08:50:29.385Z,-2.07
2019-02-06T08:52:33.591Z,-2.05
2019-02-06T08:54:38.504Z,-2.02
2019-02-06T08:56:42.352Z,-2.01
2019-02-06T08:58:46.304Z,-1.98
2019-02-06T09:00:50.257Z,-1.96
2019-02-06T09:02:54.140Z,-1.95
2019-02-06T09:04:58.940Z,-1.94
2019-02-06T09:07:02.817Z,-1.93
2019-02-06T09:09:56.904Z,-1.84
2019-02-06T09:12:01.250Z,-1.77
2019-02-06T09:14:07.816Z,-1.77
2019-02-06T09:16:11.943Z,-1.79
2019-02-06T09:18:16.598Z,-1.79
2019-02-06T09:20:22.533Z,-1.79
2019-02-06T09:22:26.540Z,-1.77
2019-02-06T09:24:31.877Z,-1.80
2019-02-06T09:26:36.309Z,-1.80
2019-02-06T09:28:40.755Z,-1.81
2019-02-06T09:30:45.005Z,-1.79
2019-02-06T09:32:50.027Z,-1.74
2019-02-06T09:34:54.241Z,-1.71
2019-02-06T09:37:00.111Z,-1.66
2019-02-06T09:39:11.744Z,-1.59
2019-02-06T09:41:12.331Z,-1.55
2019-02-06T09:43:16.348Z,-1.52
2019-02-06T09:45:21.159Z,-1.52
2019-02-06T09:47:25.105Z,-1.51
2019-02-06T09:49:29.387Z,-1.52
2019-02-06T09:51:33.288Z,-1.50
2019-02-06T09:53:37.896Z,-1.51
2019-02-06T09:55:42.094Z,-1.52
2019-02-06T09:57:45.894Z,-1.56
2019-02-06T09:59:50.115Z,-1.55
2019-02-06T10:01:54.181Z,-1.55
2019-02-06T10:03:58.882Z,-1.54
2019-02-06T10:06:03.221Z,-1.52
2019-02-06T10:08:07.191Z,-1.50
2019-02-06T10:10:15.706Z,-1.44
2019-02-06T10:12:20.251Z,-1.42
2019-02-06T10:14:24.629Z,-1.37
2019-02-06T10:16:29.663Z,-1.31
2019-02-06T10:18:33.597Z,-1.25
2019-02-06T10:20:49.227Z,-1.13
2019-02-06T10:22:54.573Z,-1.02
2019-02-06T10:24:58.363Z,-0.95
2019-02-06T10:27:02.389Z,-0.86
2019-02-06T10:29:06.876Z,-0.80
2019-02-06T10:31:11.603Z,-0.80
2019-02-06T10:33:18.444Z,-0.70
2019-02-06T10:35:21.403Z,-0.61
2019-02-06T10:37:29.236Z,-0.50
2019-02-06T10:39:39.132Z,-0.42
2019-02-06T10:41:43.341Z,-0.37
2019-02-06T10:43:47.745Z,-0.32
2019-02-06T10:45:52.295Z,-0.36
2019-02-06T10:47:56.287Z,-0.38
2019-02-06T10:50:02.030Z,-0.29
2019-02-06T10:52:06.154Z,-0.19
2019-02-06T10:54:10.095Z,-0.05
2019-02-06T10:56:15.066Z,0.14
2019-02-06T10:58:20.007Z,0.36
2019-02-06T11:00:29.795Z,0.62
2019-02-06T11:02:34.625Z,1.27
2019-02-06T11:04:39.089Z,1.60
2019-02-06T11:06:45.895Z,1.72
2019-02-06T11:08:49.771Z,1.65
2019-02-06T11:10:54.649Z,1.59
2019-02-06T11:12:58.636Z,1.56
2019-02-06T11:15:02.959Z,1.56
2019-02-06T11:17:07.039Z,1.71
2019-02-06T11:19:12.907Z,1.89
2019-02-06T11:21:20.255Z,2.03
2019-02-06T11:23:24.306Z,2.08
2019-02-06T11:25:29.199Z,2.19
2019-02-06T11:27:33.659Z,2.64
2019-02-06T11:29:38.028Z,3.17
2019-02-06T11:31:41.998Z,3.33
2019-02-06T11:33:46.034Z,3.48
2019-02-06T11:35:50.346Z,3.88
2019-02-06T11:37:54.487Z,4.09
2019-02-06T11:39:59.383Z,4.19
2019-02-06T11:42:04.003Z,4.26
2019-02-06T11:44:08.486Z,4.49
2019-02-06T11:46:12.721Z,4.50
2019-02-06T11:48:16.697Z,4.37
2019-02-06T11:50:24.269Z,4.84
2019-02-06T11:52:28.296Z,5.39
2019-02-06T11:54:33.289Z,6.23
2019-02-06T11:56:37.312Z,6.45
2019-02-06T11:58:41.744Z,6.38
2019-02-06T12:01:14.378Z,6.18
2019-02-06T12:03:18.250Z,6.51
2019-02-06T12:05:22.820Z,6.85
2019-02-06T12:07:26.745Z,6.39
2019-02-06T12:09:32.669Z,6.49
2019-02-06T12:11:39.104Z,6.97
2019-02-06T12:13:43.051Z,7.74
2019-02-06T12:15:48.293Z,7.98
2019-02-06T12:17:52.348Z,7.87
2019-02-06T12:20:00.049Z,7.68
2019-02-06T12:22:06.828Z,7.36
2019-02-06T12:24:12.815Z,6.75
2019-02-06T12:26:16.730Z,6.34
2019-02-06T12:28:20.690Z,6.09
2019-02-06T12:30:34.167Z,6.53
2019-02-06T12:32:39.249Z,6.73
2019-02-06T12:34:48.217Z,6.74
2019-02-06T12:36:52.442Z,6.60
2019-02-06T12:38:56.524Z,7.11
2019-02-06T12:41:01.321Z,7.92
2019-02-06T12:43:06.200Z,8.33
2019-02-06T12:45:11.775Z,8.64
2019-02-06T12:47:15.775Z,8.61
2019-02-06T12:49:19.775Z,8.14
2019-02-06T12:51:24.359Z,7.89
2019-02-06T12:53:28.424Z,7.56
2019-02-06T12:55:35.724Z,7.03
2019-02-06T12:57:39.841Z,7.11
2019-02-06T12:59:44.471Z,6.75
2019-02-06T13:01:51.533Z,6.45
2019-02-06T13:03:58.183Z,6.35
2019-02-06T13:06:03.063Z,6.43
2019-02-06T13:08:07.948Z,6.25
2019-02-06T13:10:12.663Z,6.15
2019-02-06T13:12:20.989Z,5.84
2019-02-06T13:14:25.562Z,5.19
2019-02-06T13:16:30.379Z,4.65
2019-02-06T13:18:35.044Z,4.21
2019-02-06T13:20:40.732Z,3.95
2019-02-06T13:22:44.630Z,3.75
2019-02-06T13:24:48.850Z,3.60
2019-02-06T13:26:52.961Z,3.48
2019-02-06T13:28:57.396Z,3.36
2019-02-06T13:31:01.730Z,3.21
2019-02-06T13:33:06.478Z,3.13
2019-02-06T13:35:11.387Z,3.04
2019-02-06T13:37:16.824Z,3.01
2019-02-06T13:39:21.074Z,2.99
2019-02-06T13:41:25.628Z,2.95
2019-02-06T13:43:29.720Z,2.91
2019-02-06T13:45:36.278Z,2.86
2019-02-06T13:47:40.172Z,2.84
2019-02-06T13:49:46.957Z,2.85
2019-02-06T13:51:52.025Z,2.85
2019-02-06T13:53:56.545Z,2.85
2019-02-06T13:56:01.423Z,2.83
2019-02-06T13:58:05.540Z,2.78
2019-02-06T14:00:17.357Z,2.78
2019-02-06T14:02:21.486Z,2.79
2019-02-06T14:04:25.461Z,2.77
2019-02-06T14:06:29.723Z,2.75
2019-02-06T14:08:33.756Z,2.67
2019-02-06T14:10:40.437Z,2.62
2019-02-06T14:12:44.273Z,2.60
2019-02-06T14:14:48.221Z,2.56
2019-02-06T14:16:53.070Z,2.56
2019-02-06T14:18:57.028Z,2.56
2019-02-06T14:21:01.869Z,2.57
2019-02-06T14:23:09.245Z,2.57
2019-02-06T14:25:44.745Z,2.56
2019-02-06T14:28:16.525Z,2.58
2019-02-06T14:30:30.358Z,2.60
2019-02-06T14:33:16.133Z,2.64
2019-02-06T14:36:10.774Z,2.63
2019-02-06T14:39:04.035Z,2.63
2019-02-06T14:41:35.516Z,2.59
2019-02-06T14:44:13.244Z,2.54
2019-02-06T14:46:57.056Z,2.51
2019-02-06T14:49:38.301Z,2.54
2019-02-06T14:52:15.222Z,2.55
2019-02-06T14:54:41.447Z,2.57
2019-02-06T14:57:07.149Z,2.56
2019-02-06T15:00:04.303Z,2.58
2019-02-06T15:02:41.651Z,2.57
2019-02-06T15:05:25.931Z,2.58
2019-02-06T15:08:20.137Z,2.56
2019-02-06T15:10:39.160Z,2.54
2019-02-06T15:13:37.158Z,2.53
2019-02-06T15:16:10.593Z,2.51
2019-02-06T15:19:10.067Z,2.49
2019-02-06T15:21:46.463Z,2.45
2019-02-06T15:24:36.774Z,2.42
2019-02-06T15:27:15.516Z,2.38
2019-02-06T15:29:59.431Z,2.29
2019-02-06T15:32:30.867Z,2.23
2019-02-06T15:35:04.032Z,2.16
2019-02-06T15:37:33.603Z,2.09
2019-02-06T15:40:28.125Z,2.02
2019-02-06T15:43:20.308Z,1.96
2019-02-06T15:45:36.741Z,1.86
2019-02-06T15:47:56.893Z,1.78
2019-02-06T15:50:43.343Z,1.73
2019-02-06T15:53:35.236Z,1.69
2019-02-06T15:56:20.542Z,1.60
2019-02-06T15:59:12.272Z,1.53
2019-02-06T16:01:38.291Z,1.47
2019-02-06T16:04:47.382Z,1.40
2019-02-06T16:07:36.987Z,1.36
2019-02-06T16:10:05.962Z,1.31
2019-02-06T16:12:29.570Z,1.25
2019-02-06T16:15:23.838Z,1.19
2019-02-06T16:18:03.615Z,1.17
2019-02-06T16:20:51.012Z,1.10
2019-02-06T16:23:37.527Z,1.04
2019-02-06T16:26:13.171Z,0.98
2019-02-06T16:29:10.289Z,0.92
2019-02-06T16:31:37.711Z,0.86
2019-02-06T16:34:20.249Z,0.81
2019-02-06T16:36:56.165Z,0.77
2019-02-06T16:39:20.800Z,0.72
2019-02-06T16:42:00.256Z,0.65
2019-02-06T16:44:39.095Z,0.62
2019-02-06T16:47:20.796Z,0.58
2019-02-06T16:49:55.010Z,0.57
2019-02-06T16:52:15.170Z,0.53
2019-02-06T16:55:03.459Z,0.48
2019-02-06T16:58:06.036Z,0.45
2019-02-06T17:00:59.308Z,0.40
2019-02-06T17:04:08.570Z,0.34
2019-02-06T17:06:26.408Z,0.27
2019-02-06T17:09:07.351Z,0.22
2019-02-06T17:12:04.375Z,0.19
2019-02-06T17:14:39.922Z,0.14
2019-02-06T17:17:29.811Z,0.09
2019-02-06T17:19:56.808Z,0.06
2019-02-06T17:22:44.600Z,0.00
2019-02-06T17:25:27.490Z,-0.02
2019-02-06T17:28:25.540Z,-0.04
2019-02-06T17:31:25.219Z,-0.07
2019-02-06T17:34:05.378Z,-0.10
2019-02-06T17:36:43.905Z,-0.18
2019-02-06T17:39:24.329Z,-0.24
2019-02-06T17:42:15.902Z,-0.30
2019-02-06T17:44:54.614Z,-0.37
2019-02-06T17:47:48.879Z,-0.44
2019-02-06T17:50:34.500Z,-0.45
2019-02-06T17:53:05.829Z,-0.49
2019-02-06T17:55:21.517Z,-0.55
2019-02-06T17:57:25.521Z,-0.57
2019-02-06T17:59:30.004Z,-0.60
2019-02-06T18:01:45.269Z,-0.60
2019-02-06T18:03:53.886Z,-0.63
2019-02-06T18:05:59.882Z,-0.65
2019-02-06T18:08:04.640Z,-0.67
2019-02-06T18:10:14.788Z,-0.66
2019-02-06T18:12:26.275Z,-0.68
2019-02-06T18:14:26.851Z,-0.72
2019-02-06T18:16:32.206Z,-0.76
2019-02-06T18:18:36.712Z,-0.77
2019-02-06T18:20:41.819Z,-0.79
2019-02-06T18:22:46.031Z,-0.82
2019-02-06T18:24:51.300Z,-0.84
2019-02-06T18:26:55.461Z,-0.87
2019-02-06T18:28:59.933Z,-0.90
2019-02-06T18:31:05.983Z,-0.92
2019-02-06T18:33:10.688Z,-0.94
2019-02-06T18:35:15.628Z,-0.96
2019-02-06T18:37:20.111Z,-0.98
2019-02-06T18:39:24.479Z,-1.01
2019-02-06T18:41:28.853Z,-1.00
2019-02-06T18:43:33.317Z,-1.02
2019-02-06T18:45:38.594Z,-1.02
2019-02-06T18:47:43.849Z,-1.03
2019-02-06T18:49:48.199Z,-1.02
2019-02-06T18:51:52.913Z,-1.00
2019-02-06T18:53:58.185Z,-1.02
2019-02-06T18:56:04.175Z,-1.02
2019-02-06T18:58:08.749Z,-1.03
2019-02-06T19:00:17.293Z,-1.05
2019-02-06T19:02:22.539Z,-1.08
2019-02-06T19:04:28.176Z,-1.08
2019-02-06T19:06:33.865Z,-1.08
2019-02-06T19:08:40.096Z,-1.10
2019-02-06T19:10:45.704Z,-1.11
2019-02-06T19:12:50.793Z,-1.13
2019-02-06T19:14:55.156Z,-1.17
2019-02-06T19:17:00.706Z,-1.21
2019-02-06T19:19:06.267Z,-1.22
2019-02-06T19:21:11.989Z,-1.23
2019-02-06T19:23:16.374Z,-1.24
2019-02-06T19:25:23.910Z,-1.25
2019-02-06T19:27:27.947Z,-1.25
2019-02-06T19:29:33.525Z,-1.27
2019-02-06T19:31:38.799Z,-1.29
2019-02-06T19:33:43.565Z,-1.30
2019-02-06T19:35:49.190Z,-1.31
2019-02-06T19:37:53.954Z,-1.32
2019-02-06T19:39:58.864Z,-1.35
2019-02-06T19:42:05.000Z,-1.36
2019-02-06T19:44:11.260Z,-1.37
2019-02-06T19:46:16.772Z,-1.40
2019-02-06T19:48:22.465Z,-1.41
2019-02-06T19:50:33.107Z,-1.43
2019-02-06T19:52:37.846Z,-1.45
2019-02-06T19:54:46.177Z,-1.47
2019-02-06T19:56:52.185Z,-1.47
2019-02-06T19:58:59.087Z,-1.48
2019-02-06T20:01:04.985Z,-1.47
2019-02-06T20:03:11.254Z,-1.48
2019-02-06T20:05:16.174Z,-1.49
2019-02-06T20:07:22.598Z,-1.49
2019-02-06T20:09:30.432Z,-1.52
2019-02-06T20:11:38.807Z,-1.54
2019-02-06T20:13:44.198Z,-1.55
2019-02-06T20:15:48.994Z,-1.58
2019-02-06T20:17:53.075Z,-1.58
2019-02-06T20:19:57.335Z,-1.60
2019-02-06T20:22:01.691Z,-1.60
2019-02-06T20:24:06.335Z,-1.59
2019-02-06T20:26:11.318Z,-1.60
2019-02-06T20:28:18.705Z,-1.60
2019-02-06T20:30:24.961Z,-1.61
2019-02-06T20:32:30.107Z,-1.61
2019-02-06T20:34:34.281Z,-1.62
2019-02-06T20:36:39.237Z,-1.65
2019-02-06T20:38:43.680Z,-1.67
2019-02-06T20:40:47.879Z,-1.68
2019-02-06T20:42:53.127Z,-1.70
2019-02-06T20:44:57.395Z,-1.72
2019-02-06T20:47:02.127Z,-1.74
2019-02-06T20:49:08.293Z,-1.79
2019-02-06T20:51:12.488Z,-1.81
2019-02-06T20:53:16.895Z,-1.84
2019-02-06T20:55:21.223Z,-1.89
2019-02-06T20:57:25.480Z,-1.92
2019-02-06T20:59:29.565Z,-1.90
2019-02-06T21:01:33.805Z,-1.90
2019-02-06T21:03:39.016Z,-1.86
2019-02-06T21:05:43.315Z,-1.85
2019-02-06T21:07:47.399Z,-1.84
2019-02-06T21:09:51.554Z,-1.84
2019-02-06T21:11:56.022Z,-1.82
2019-02-06T21:14:00.117Z,-1.82
2019-02-06T21:16:04.210Z,-1.79
2019-02-06T21:18:08.487Z,-1.78
2019-02-06T21:20:14.520Z,-1.73
2019-02-06T21:22:18.650Z,-1.69
2019-02-06T21:24:23.113Z,-1.66
2019-02-06T21:26:27.042Z,-1.63
2019-02-06T21:28:31.690Z,-1.61
2019-02-06T21:30:36.232Z,-1.58
2019-02-06T21:32:41.296Z,-1.55
2019-02-06T21:34:45.325Z,-1.52
2019-02-06T21:36:49.336Z,-1.50
2019-02-06T21:38:53.542Z,-1.46
2019-02-06T21:40:57.830Z,-1.47
2019-02-06T21:43:02.047Z,-1.48
2019-02-06T21:45:06.810Z,-1.53
2019-02-06T21:47:11.371Z,-1.53
2019-02-06T21:49:16.527Z,-1.53
2019-02-06T21:51:20.857Z,-1.57
2019-02-06T21:53:24.952Z,-1.60
2019-02-06T21:55:28.992Z,-1.59
2019-02-06T21:57:33.051Z,-1.62
2019-02-06T21:59:39.662Z,-1.65
2019-02-06T22:01:43.973Z,-1.67
2019-02-06T22:03:48.186Z,-1.73
2019-02-06T22:05:53.262Z,-1.77
2019-02-06T22:07:57.470Z,-1.81
2019-02-06T22:10:01.556Z,-1.83
2019-02-06T22:12:06.664Z,-1.84
2019-02-06T22:14:10.828Z,-1.93
2019-02-06T22:16:14.679Z,-1.99
2019-02-06T22:18:20.733Z,-2.02
2019-02-06T22:20:24.895Z,-2.04
2019-02-06T22:22:29.011Z,-2.05
2019-02-06T22:24:35.554Z,-2.10
2019-02-06T22:26:39.570Z,-2.12
2019-02-06T22:28:46.648Z,-2.19
2019-02-06T22:30:50.849Z,-2.28
2019-02-06T22:32:55.070Z,-2.33
2019-02-06T22:34:59.326Z,-2.42
2019-02-06T22:37:03.243Z,-2.45
2019-02-06T22:39:11.579Z,-2.51
2019-02-06T22:41:15.556Z,-2.51
2019-02-06T22:43:19.643Z,-2.53
2019-02-06T22:45:27.560Z,-2.58
2019-02-06T22:47:31.563Z,-2.59
2019-02-06T22:49:35.554Z,-2.55
2019-02-06T22:51:40.506Z,-2.51
2019-02-06T22:53:45.710Z,-2.51
2019-02-06T22:55:50.024Z,-2.48
2019-02-06T22:57:54.286Z,-2.49
2019-02-06T22:59:58.570Z,-2.54
2019-02-06T23:02:02.657Z,-2.52
2019-02-06T23:04:07.667Z,-2.49
2019-02-06T23:06:12.094Z,-2.48
2019-02-06T23:08:16.681Z,-2.47
2019-02-06T23:10:20.658Z,-2.46
2019-02-06T23:12:27.424Z,-2.44
2019-02-06T23:14:31.622Z,-2.40
2019-02-06T23:16:36.646Z,-2.37
2019-02-06T23:18:41.356Z,-2.36
2019-02-06T23:20:45.553Z,-2.38
2019-02-06T23:22:50.034Z,-2.41
2019-02-06T23:24:54.364Z,-2.46
2019-02-06T23:26:58.389Z,-2.50
2019-02-06T23:29:03.592Z,-2.54
2019-02-06T23:31:07.982Z,-2.55
2019-02-06T23:33:12.019Z,-2.59
2019-02-06T23:35:16.227Z,-2.60
2019-02-06T23:37:20.138Z,-2.63
2019-02-06T23:39:42.591Z,-2.64
2019-02-06T23:42:03.763Z,-2.68
2019-02-06T23:44:07.763Z,-2.75
2019-02-06T23:46:12.032Z,-2.81
2019-02-06T23:48:16.195Z,-2.88
2019-02-06T23:50:20.096Z,-2.94
2019-02-06T23:52:31.621Z,-2.96
2019-02-06T23:54:35.794Z,-2.96
2019-02-06T23:56:47.277Z,-2.97
2019-02-06T23:58:51.506Z,-2.99
